Time;durP1;ratioP1;P1;durP2;ratioP2;P2;SDS_P1;SDS_P2;PMS_P1;PMS_P2;Temp;Humidity;BMP_temperature;BMP_pressure;BME280_temperature;BME280_humidity;BME280_pressure;Samples;Min_cycle;Max_cycle;Signal;HPM_P1;HPM_P2
2023/01/08 00:04:38;;;;;;;9.00;5.47;;;8.80;1.00;;;;;;5068082;28;20429;-88
2023/01/08 00:07:14;;;;;;;8.85;5.60;;;8.70;1.00;;;;;;5036365;28;20483;-88
2023/01/08 00:09:49;;;;;;;7.67;4.87;;;8.70;1.00;;;;;;5053909;28;20262;-87
2023/01/08 00:12:16;;;;;;;8.10;5.40;;;8.70;1.00;;;;;;5020342;28;20438;-88
2023/01/08 00:15:07;;;;;;;8.68;5.13;;;8.70;1.00;;;;;;5044976;28;20458;-88
2023/01/08 00:18:04;;;;;;;10.63;6.00;;;8.60;1.00;;;;;;5041555;28;20240;-88
2023/01/08 00:20:48;;;;;;;8.48;5.38;;;8.60;1.00;;;;;;5028910;28;21314;-88
2023/01/08 00:23:27;;;;;;;8.77;5.03;;;8.60;1.00;;;;;;5053370;28;20236;-87
2023/01/08 00:25:56;;;;;;;9.00;5.40;;;8.50;1.00;;;;;;5045979;28;20488;-87
2023/01/08 00:28:36;;;;;;;9.15;5.57;;;8.50;1.00;;;;;;5009928;28;20464;-88
2023/01/08 00:31:13;;;;;;;10.10;6.22;;;8.50;1.00;;;;;;5028704;28;20252;-88
2023/01/08 00:33:47;;;;;;;8.77;5.40;;;8.40;1.00;;;;;;5036731;28;20242;-88
2023/01/08 00:36:22;;;;;;;11.77;6.60;;;8.40;1.00;;;;;;5038352;28;20240;-89
2023/01/08 00:38:57;;;;;;;8.80;6.05;;;8.30;1.00;;;;;;5032564;28;20456;-87
2023/01/08 00:41:25;;;;;;;9.52;6.30;;;8.30;1.00;;;;;;5031452;28;20329;-88
2023/01/08 00:44:06;;;;;;;10.07;6.30;;;8.30;1.00;;;;;;5029103;28;20688;-88
2023/01/08 00:46:38;;;;;;;9.70;6.00;;;8.30;1.00;;;;;;5020279;28;20622;-87
2023/01/08 00:49:08;;;;;;;8.55;5.82;;;8.30;1.00;;;;;;5037819;28;20474;-87
2023/01/08 00:51:40;;;;;;;10.95;6.20;;;8.20;1.00;;;;;;5031902;28;20710;-88
2023/01/08 00:54:19;;;;;;;;;;;;;;;;;;;;;
2023/01/08 00:56:49;;;;;;;11.00;6.80;;;8.30;1.00;;;;;;5031478;28;48359;-87
2023/01/08 00:59:18;;;;;;;8.50;5.20;;;8.20;1.00;;;;;;5017018;28;20530;-88
2023/01/08 01:01:55;;;;;;;10.88;6.82;;;8.10;1.00;;;;;;5030354;28;20263;-88
2023/01/08 01:04:28;;;;;;;11.30;7.13;;;8.10;1.00;;;;;;5015340;28;20236;-88
2023/01/08 01:06:58;;;;;;;13.05;7.28;;;8.00;1.00;;;;;;5026031;28;20490;-88
2023/01/08 01:09:27;;;;;;;11.27;7.20;;;8.00;1.00;;;;;;5034434;28;20229;-88
2023/01/08 01:11:58;;;;;;;10.90;7.45;;;8.00;1.00;;;;;;5029648;28;20722;-88
2023/01/08 01:14:30;;;;;;;9.80;6.13;;;8.00;1.00;;;;;;5017043;28;20261;-88
2023/01/08 01:16:59;;;;;;;9.55;6.45;;;7.90;1.00;;;;;;5025225;28;20246;-88
2023/01/08 01:19:26;;;;;;;10.77;6.60;;;7.90;1.00;;;;;;5021319;28;20239;-87
2023/01/08 01:22:05;;;;;;;10.50;6.50;;;7.90;1.00;;;;;;5037522;28;20712;-88
2023/01/08 01:24:38;;;;;;;10.93;6.30;;;7.80;1.00;;;;;;5003259;28;20250;-87
2023/01/08 01:27:08;;;;;;;9.82;6.43;;;7.80;1.00;;;;;;5070391;28;20313;-88
2023/01/08 01:29:37;;;;;;;10.02;6.55;;;7.80;1.00;;;;;;5047626;28;20345;-87
2023/01/08 01:32:08;;;;;;;9.40;6.35;;;7.70;1.00;;;;;;5059079;28;20239;-88
2023/01/08 01:34:37;;;;;;;9.38;6.10;;;7.70;1.00;;;;;;5071793;28;20246;-88
2023/01/08 01:37:17;;;;;;;11.23;7.20;;;7.70;1.00;;;;;;5049201;28;20237;-88
2023/01/08 01:39:46;;;;;;;10.82;7.15;;;7.70;1.00;;;;;;5059211;28;20245;-88
2023/01/08 01:45:13;;;;;;;9.40;6.43;;;7.60;1.00;;;;;;5039379;28;20960;-87
2023/01/08 01:47:58;;;;;;;11.43;6.53;;;7.50;1.00;;;;;;5028669;28;20329;-89
2023/01/08 01:50:36;;;;;;;10.85;7.28;;;7.60;1.00;;;;;;5016422;28;20248;-87
2023/01/08 01:53:26;;;;;;;11.95;7.80;;;7.50;1.00;;;;;;5048389;28;20687;-88
2023/01/08 01:56:07;;;;;;;10.07;7.30;;;7.50;1.00;;;;;;5048044;28;20225;-87
2023/01/08 01:58:58;;;;;;;9.90;6.70;;;7.50;1.00;;;;;;5034234;28;20528;-88
2023/01/08 02:01:35;;;;;;;9.77;7.00;;;7.40;1.00;;;;;;5043188;28;20930;-88
2023/01/08 02:04:16;;;;;;;10.38;6.85;;;7.30;1.00;;;;;;5072746;28;20297;-88
2023/01/08 02:10:06;;;;;;;10.73;6.93;;;7.30;1.00;;;;;;5039812;28;20290;-88
2023/01/08 02:12:56;;;;;;;10.75;7.22;;;7.20;1.00;;;;;;5031771;28;20237;-87
2023/01/08 02:15:36;;;;;;;12.00;7.28;;;7.20;1.00;;;;;;5043783;28;20239;-88
2023/01/08 02:18:14;;;;;;;10.35;7.43;;;7.20;1.00;;;;;;5049083;28;20706;-88
2023/01/08 02:20:50;;;;;;;10.70;7.03;;;7.10;1.00;;;;;;5041678;28;20234;-87
2023/01/08 02:23:26;;;;;;;10.60;7.75;;;7.10;1.00;;;;;;5049843;28;20239;-88
2023/01/08 02:26:22;;;;;;;11.35;7.97;;;7.10;1.00;;;;;;5065558;28;20235;-89
2023/01/08 02:28:54;;;;;;;9.98;6.97;;;7.10;1.00;;;;;;5042399;28;20233;-87
2023/01/08 02:31:46;;;;;;;11.88;8.73;;;7.00;1.00;;;;;;5046308;28;20241;-88
2023/01/08 02:34:30;;;;;;;13.00;8.25;;;7.00;1.00;;;;;;5058040;28;20722;-88
2023/01/08 02:37:00;;;;;;;10.70;8.18;;;7.00;1.00;;;;;;5047974;28;20240;-89
2023/01/08 02:39:50;;;;;;;10.38;7.80;;;6.90;1.00;;;;;;5038502;28;20225;-90
2023/01/08 02:42:36;;;;;;;11.55;8.05;;;7.00;1.00;;;;;;5013461;28;21002;-89
2023/01/08 02:45:26;;;;;;;11.20;8.15;;;6.90;1.00;;;;;;5050947;28;20278;-89
2023/01/08 02:48:12;;;;;;;11.77;8.07;;;6.90;1.00;;;;;;5053273;28;20243;-88
2023/01/08 02:50:44;;;;;;;11.50;7.78;;;6.90;1.00;;;;;;5073732;28;20268;-88
2023/01/08 02:53:15;;;;;;;12.23;8.68;;;6.80;1.00;;;;;;5037740;28;20307;-88
2023/01/08 02:56:16;;;;;;;12.52;8.77;;;6.80;1.00;;;;;;5036178;28;21131;-87
2023/01/08 02:58:59;;;;;;;12.73;8.60;;;6.80;1.00;;;;;;5033679;28;20241;-88
2023/01/08 03:01:40;;;;;;;;;;;;;;;;;;;;;
2023/01/08 03:04:46;;;;;;;13.15;8.45;;;6.80;1.00;;;;;;5041161;28;40610;-89
2023/01/08 03:07:26;;;;;;;14.00;9.20;;;6.70;1.00;;;;;;5046396;28;21177;-88
2023/01/08 03:10:05;;;;;;;12.48;8.40;;;6.70;1.00;;;;;;5053279;28;20249;-88
2023/01/08 03:12:50;;;;;;;12.18;7.35;;;6.70;1.00;;;;;;5053237;28;20674;-87
2023/01/08 03:15:39;;;;;;;13.43;9.10;;;6.70;1.00;;;;;;5049824;28;20228;-88
2023/01/08 03:18:24;;;;;;;12.10;8.98;;;6.60;1.00;;;;;;5065125;28;20245;-88
2023/01/08 03:21:06;;;;;;;14.10;8.50;;;6.60;1.00;;;;;;5079866;28;20269;-88
2023/01/08 03:23:37;;;;;;;13.27;9.32;;;6.60;1.00;;;;;;5065460;28;20221;-88
2023/01/08 03:26:20;;;;;;;12.25;9.07;;;6.60;1.00;;;;;;5061067;28;20245;-88
2023/01/08 03:28:57;;;;;;;14.65;10.32;;;6.60;1.00;;;;;;5038904;28;21013;-88
2023/01/08 03:31:46;;;;;;;12.90;9.55;;;6.70;1.00;;;;;;5035280;28;20249;-89
2023/01/08 03:34:29;;;;;;;12.52;9.27;;;6.70;1.00;;;;;;5070559;28;20255;-88
2023/01/08 03:37:06;;;;;;;11.98;8.35;;;6.70;1.00;;;;;;5050631;28;20329;-88
2023/01/08 03:39:46;;;;;;;12.02;7.72;;;6.70;1.00;;;;;;5048228;28;20242;-88
2023/01/08 03:42:26;;;;;;;12.43;9.32;;;6.70;1.00;;;;;;5045213;28;20323;-87
2023/01/08 03:44:58;;;;;;;12.25;8.40;;;6.60;1.00;;;;;;5045033;28;20300;-87
2023/01/08 03:47:36;;;;;;;10.65;7.80;;;6.70;1.00;;;;;;5055040;28;20267;-87
2023/01/08 03:50:09;;;;;;;13.75;8.50;;;6.70;1.00;;;;;;5059315;28;21057;-88
2023/01/08 03:52:39;;;;;;;11.75;8.63;;;6.70;1.00;;;;;;5050696;28;20281;-87
2023/01/08 03:55:08;;;;;;;10.68;8.40;;;6.70;1.00;;;;;;5065964;28;20246;-88
2023/01/08 03:57:38;;;;;;;12.20;8.23;;;6.60;1.00;;;;;;5063472;28;20232;-88
2023/01/08 04:00:08;;;;;;;13.05;8.50;;;6.60;1.00;;;;;;5077985;28;20230;-88
2023/01/08 04:02:48;;;;;;;11.20;8.43;;;6.60;1.00;;;;;;5035258;28;20243;-87
2023/01/08 04:05:25;;;;;;;13.30;9.88;;;6.50;1.00;;;;;;5054464;28;20226;-88
2023/01/08 04:08:14;;;;;;;11.95;8.80;;;6.50;1.00;;;;;;5050182;28;20260;-88
2023/01/08 04:10:49;;;;;;;12.43;9.40;;;6.50;1.00;;;;;;5046676;28;20269;-88
2023/01/08 04:13:18;;;;;;;11.15;8.63;;;6.50;1.00;;;;;;5062694;28;20245;-87
2023/01/08 04:15:48;;;;;;;11.45;8.68;;;6.50;1.00;;;;;;5070810;28;21083;-87
2023/01/08 04:18:20;;;;;;;13.75;10.07;;;6.40;1.00;;;;;;5074892;28;21201;-88
2023/01/08 04:20:47;;;;;;;12.30;9.23;;;6.50;1.00;;;;;;5075737;28;20319;-88
2023/01/08 04:23:26;;;;;;;11.82;8.80;;;6.50;1.00;;;;;;5071678;28;20237;-87
2023/01/08 04:25:59;;;;;;;11.80;7.85;;;6.50;1.00;;;;;;5084286;28;20222;-87
2023/01/08 04:28:28;;;;;;;12.30;8.85;;;6.50;1.00;;;;;;5055596;28;20322;-88
2023/01/08 04:30:57;;;;;;;11.60;8.40;;;6.50;1.00;;;;;;5048134;28;20233;-87
2023/01/08 04:33:27;;;;;;;13.52;8.45;;;6.50;1.00;;;;;;5047506;28;20245;-88
2023/01/08 04:36:08;;;;;;;12.60;8.85;;;6.60;1.00;;;;;;5033972;28;20813;-89
2023/01/08 04:38:38;;;;;;;12.82;8.70;;;6.60;1.00;;;;;;5020310;28;20988;-88
2023/01/08 04:41:07;;;;;;;11.13;8.38;;;6.60;1.00;;;;;;5057618;28;20263;-91
2023/01/08 04:43:35;;;;;;;12.40;9.45;;;6.70;1.00;;;;;;5040989;28;20234;-88
2023/01/08 04:46:12;;;;;;;13.25;8.80;;;6.60;1.00;;;;;;5043702;28;20229;-88
2023/01/08 04:48:40;;;;;;;12.50;8.95;;;6.60;1.00;;;;;;5036321;28;20237;-87
2023/01/08 04:51:08;;;;;;;11.43;8.50;;;6.70;1.00;;;;;;5045667;28;20230;-87
2023/01/08 04:53:40;;;;;;;12.35;8.30;;;6.70;1.00;;;;;;5033209;28;21020;-88
2023/01/08 04:56:10;;;;;;;12.52;8.48;;;6.70;1.00;;;;;;5051740;28;20326;-89
2023/01/08 04:58:38;;;;;;;14.20;9.52;;;6.60;1.00;;;;;;5041592;28;20265;-88
2023/01/08 05:07:16;;;;;;;12.48;8.60;;;6.60;1.00;;;;;;5057125;28;20351;-88
2023/01/08 05:09:56;;;;;;;11.65;9.10;;;6.60;1.00;;;;;;5038382;28;20705;-88
2023/01/08 05:15:18;;;;;;;10.95;8.10;;;6.70;1.00;;;;;;5046051;28;20316;-89
2023/01/08 05:26:59;;;;;;;11.63;8.05;;;6.90;1.00;;;;;;5061229;28;20232;-88
2023/01/08 05:32:27;;;;;;;11.23;7.50;;;6.90;1.00;;;;;;5055870;28;20470;-88
2023/01/08 05:35:07;;;;;;;12.05;8.68;;;6.90;1.00;;;;;;5061611;28;20231;-88
2023/01/08 05:37:59;;;;;;;11.65;7.78;;;6.80;1.00;;;;;;5029587;28;20404;-88
2023/01/08 05:40:36;;;;;;;11.70;7.90;;;6.80;1.00;;;;;;5051072;27;20231;-88
2023/01/08 05:43:19;;;;;;;12.30;8.50;;;6.70;1.00;;;;;;5068692;27;21261;-88
2023/01/08 05:45:49;;;;;;;11.48;8.15;;;6.80;1.00;;;;;;5055424;28;21035;-89
2023/01/08 05:51:36;;;;;;;11.52;8.20;;;6.90;1.00;;;;;;5073896;28;21248;-88
2023/01/08 05:54:38;;;;;;;11.05;7.88;;;7.00;1.00;;;;;;5056526;28;20779;-87
2023/01/08 05:57:39;;;;;;;11.32;7.53;;;7.10;1.00;;;;;;5064737;28;20674;-87
2023/01/08 06:00:50;;;;;;;10.43;7.28;;;7.10;1.00;;;;;;4928665;28;20737;-88
2023/01/08 06:03:21;;;;;;;10.73;6.85;;;7.20;1.00;;;;;;4947820;28;20705;-87
2023/01/08 06:08:50;;;;;;;13.10;8.20;;;7.30;1.00;;;;;;5041111;28;21201;-88
2023/01/08 06:11:28;;;;;;;10.63;7.45;;;7.40;1.00;;;;;;5029696;28;21159;-88
2023/01/08 06:14:06;;;;;;;12.05;8.05;;;7.50;1.00;;;;;;5059225;28;20254;-88
2023/01/08 06:16:57;;;;;;;11.15;7.50;;;7.60;1.00;;;;;;5053243;28;20307;-88
2023/01/08 06:19:39;;;;;;;11.45;8.25;;;7.60;1.00;;;;;;5058313;28;20239;-88
2023/01/08 06:22:09;;;;;;;11.43;8.13;;;7.60;1.00;;;;;;5065185;28;20232;-88
2023/01/08 06:24:46;;;;;;;9.80;7.20;;;7.60;1.00;;;;;;5063317;28;20397;-87
2023/01/08 06:27:19;;;;;;;10.43;7.55;;;7.50;1.00;;;;;;5045306;28;20539;-88
2023/01/08 06:30:10;;;;;;;12.07;8.18;;;7.50;1.00;;;;;;5016897;28;20732;-88
2023/01/08 06:32:48;;;;;;;11.00;7.57;;;7.50;1.00;;;;;;5030742;28;22621;-88
2023/01/08 06:38:39;;;;;;;12.88;7.63;;;7.60;1.00;;;;;;5007303;28;21256;-89
2023/01/08 06:41:16;;;;;;;10.25;6.97;;;7.50;1.00;;;;;;5031714;28;20237;-88
2023/01/08 06:44:07;;;;;;;11.75;8.10;;;7.50;1.00;;;;;;5019116;28;20244;-89
2023/01/08 06:47:13;;;;;;;10.45;7.25;;;7.50;1.00;;;;;;4954585;28;20238;-88
2023/01/08 06:49:58;;;;;;;9.80;6.70;;;7.60;1.00;;;;;;4964805;28;20263;-87
2023/01/08 06:52:57;;;;;;;10.60;6.65;;;7.60;1.00;;;;;;4966504;28;20450;-87
2023/01/08 07:07:07;;;;;;;12.40;7.05;;;7.70;1.00;;;;;;5045489;28;20811;-89
2023/01/08 07:09:40;;;;;;;13.07;6.90;;;7.70;1.00;;;;;;5036344;28;20391;-89
2023/01/08 07:12:19;;;;;;;9.77;6.72;;;7.70;1.00;;;;;;5041182;28;20468;-89
2023/01/08 07:15:18;;;;;;;10.43;7.03;;;7.80;1.00;;;;;;5055782;28;20244;-88
2023/01/08 07:18:04;;;;;;;9.43;6.57;;;7.80;1.00;;;;;;4941084;28;20336;-89
2023/01/08 07:23:20;;;;;;;9.97;6.67;;;7.90;1.00;;;;;;5047370;28;20581;-88
2023/01/08 07:25:59;;;;;;;11.18;6.32;;;7.90;1.00;;;;;;5041540;28;21938;-89
2023/01/08 07:31:36;;;;;;;9.97;6.73;;;7.90;1.00;;;;;;5033971;28;20245;-88
2023/01/08 07:34:58;;;;;;;9.65;5.65;;;7.90;1.00;;;;;;5028602;28;20473;-88
2023/01/08 07:40:49;;;;;;;9.30;6.40;;;7.90;1.00;;;;;;5030745;28;20325;-89
2023/01/08 07:43:47;;;;;;;9.05;6.20;;;7.90;1.00;;;;;;4989326;28;20274;-88
2023/01/08 07:46:27;;;;;;;9.63;5.67;;;7.90;1.00;;;;;;5033756;28;20663;-89
2023/01/08 07:49:19;;;;;;;9.00;6.00;;;8.00;1.00;;;;;;5046394;28;20466;-89
2023/01/08 07:52:19;;;;;;;10.27;6.22;;;8.10;1.00;;;;;;5010868;28;20541;-89
2023/01/08 07:57:57;;;;;;;10.43;5.72;;;8.10;1.00;;;;;;5049519;28;20448;-88
2023/01/08 08:03:49;;;;;;;9.73;6.10;;;8.10;1.00;;;;;;5045508;28;22965;-89
2023/01/08 08:06:30;;;;;;;8.65;5.55;;;8.00;1.00;;;;;;5026990;28;20253;-89
2023/01/08 08:09:08;;;;;;;7.57;4.88;;;8.10;1.00;;;;;;5023998;28;20324;-88
2023/01/08 08:12:17;;;;;;;9.20;5.30;;;8.10;1.00;;;;;;5028718;28;20974;-88
2023/01/08 08:15:29;;;;;;;9.57;5.50;;;8.10;1.00;;;;;;5028393;28;20230;-88
2023/01/08 08:18:08;;;;;;;10.10;5.60;;;8.10;1.00;;;;;;5003235;28;20310;-88
2023/01/08 08:24:08;;;;;;;9.00;5.60;;;8.10;1.00;;;;;;5007425;28;20238;-88
2023/01/08 08:26:49;;;;;;;9.25;5.35;;;8.00;1.00;;;;;;5011671;28;21210;-88
2023/01/08 08:29:30;;;;;;;8.63;5.32;;;8.00;1.00;;;;;;5046868;28;20243;-88
2023/01/08 08:32:09;;;;;;;9.18;5.38;;;8.00;1.00;;;;;;5029555;28;20252;-88
2023/01/08 08:34:39;;;;;;;10.30;6.68;;;8.10;1.00;;;;;;5022925;28;21507;-87
2023/01/08 08:42:50;;;;;;;9.20;5.70;;;8.00;1.00;;;;;;5016259;28;20527;-89
2023/01/08 08:45:39;;;;;;;10.05;6.20;;;8.00;1.00;;;;;;5019376;28;20445;-88
2023/01/08 08:48:21;;;;;;;;;;;;;;;;;;;;;
2023/01/08 08:51:17;;;;;;;9.30;5.72;;;8.00;1.00;;;;;;5018136;28;49960;-89
2023/01/08 09:07:19;;;;;;;10.40;5.65;;;8.10;1.00;;;;;;6400941;22;21097;-84
2023/01/08 09:09:49;;;;;;;8.90;5.60;;;8.20;1.00;;;;;;6156506;22;1347624;-84
2023/01/08 09:12:19;;;;;;;8.85;5.90;;;8.20;1.00;;;;;;6193999;22;20708;-83
2023/01/08 09:14:50;;;;;;;10.20;5.80;;;8.30;1.00;;;;;;6214379;22;20251;-84
2023/01/08 09:17:21;;;;;;;8.55;5.80;;;8.30;1.00;;;;;;6214883;22;20231;-84
2023/01/08 09:19:48;;;;;;;8.80;5.40;;;8.40;1.00;;;;;;6215105;22;20733;-84
2023/01/08 09:22:17;;;;;;;9.43;6.27;;;8.50;1.00;;;;;;6226253;22;20212;-85
2023/01/08 09:24:54;;;;;;;8.63;5.13;;;8.60;1.00;;;;;;6221305;22;20431;-85
2023/01/08 09:27:20;;;;;;;11.70;6.80;;;8.80;1.00;;;;;;6232219;22;20444;-85
2023/01/08 09:29:47;;;;;;;9.35;5.78;;;8.90;1.00;;;;;;6232661;22;20441;-84
2023/01/08 09:32:16;;;;;;;9.03;5.67;;;8.90;1.00;;;;;;6223329;22;20237;-81
2023/01/08 09:34:47;;;;;;;10.10;5.47;;;8.80;1.00;;;;;;6232369;22;20430;-84
2023/01/08 09:37:18;;;;;;;9.73;5.00;;;8.80;1.00;;;;;;6233033;22;20219;-84
2023/01/08 09:40:09;;;;;;;8.90;5.17;;;8.80;1.00;;;;;;6227467;22;20504;-84
2023/01/08 09:42:39;;;;;;;8.83;5.30;;;8.80;1.00;;;;;;6218972;22;20924;-85
2023/01/08 09:48:17;;;;;;;10.03;6.10;;;8.80;1.00;;;;;;6248134;22;20494;-85
2023/01/08 09:50:50;;;;;;;11.63;6.43;;;8.80;1.00;;;;;;6212415;22;21194;-84
2023/01/08 09:53:20;;;;;;;9.20;5.73;;;8.90;1.00;;;;;;6249226;22;21091;-84
2023/01/08 09:56:08;;;;;;;9.20;5.40;;;8.90;1.00;;;;;;6226401;22;20431;-84
2023/01/08 09:59:09;;;;;;;8.83;5.50;;;8.80;1.00;;;;;;6218552;22;20703;-83
2023/01/08 10:04:37;;;;;;;9.43;5.60;;;8.60;1.00;;;;;;6224972;22;20404;-83
2023/01/08 10:10:30;;;;;;;10.07;6.80;;;8.60;1.00;;;;;;6236826;22;20201;-84
2023/01/08 10:13:11;;;;;;;10.00;5.13;;;8.60;1.00;;;;;;6248609;22;20200;-87
2023/01/08 10:15:41;;;;;;;11.80;6.80;;;8.50;1.00;;;;;;6221473;22;20390;-86
2023/01/08 10:18:41;;;;;;;8.68;5.10;;;8.50;1.00;;;;;;6273815;22;20395;-83
2023/01/08 10:21:19;;;;;;;8.90;5.20;;;8.60;1.00;;;;;;6260550;22;20211;-85
2023/01/08 10:23:51;;;;;;;8.60;4.85;;;8.60;1.00;;;;;;6245817;22;20225;-85
2023/01/08 10:26:50;;;;;;;8.43;5.18;;;8.70;1.00;;;;;;6227846;22;20243;-87
2023/01/08 10:29:21;;;;;;;8.18;4.75;;;8.70;1.00;;;;;;6218903;22;20265;-85
2023/01/08 10:32:00;;;;;;;9.15;5.45;;;8.70;1.00;;;;;;6255888;22;20206;-82
2023/01/08 10:34:49;;;;;;;;;;;;;;;;;;;;;
2023/01/08 10:39:59;;;;;;;10.10;5.63;;;8.50;1.00;;;;;;6244804;22;20482;-86
2023/01/08 10:43:00;;;;;;;10.30;6.00;;;8.40;1.00;;;;;;6226050;22;20275;-87
2023/01/08 10:45:50;;;;;;;10.40;6.00;;;8.40;1.00;;;;;;6190194;22;20208;-88
2023/01/08 10:48:38;;;;;;;9.13;5.90;;;8.40;1.00;;;;;;6179605;22;20207;-87
2023/01/08 10:55:01;;;;;;;9.40;6.00;;;8.30;1.00;;;;;;6114338;23;20217;-87
2023/01/08 10:57:31;;;;;;;10.20;5.90;;;8.30;1.00;;;;;;6200633;22;20212;-88
2023/01/08 11:07:19;;;;;;;9.60;6.43;;;8.50;1.00;;;;;;6151457;23;20258;-90
2023/01/08 11:10:59;;;;;;;9.10;6.50;;;8.40;1.00;;;;;;6133260;23;20421;-88
2023/01/08 11:17:12;;;;;;;9.50;6.40;;;8.40;1.00;;;;;;6231214;22;20428;-89
2023/01/08 11:19:48;;;;;;;9.75;7.03;;;8.40;1.00;;;;;;6081680;23;20398;-90
2023/01/08 11:26:01;;;;;;;11.00;7.40;;;8.60;1.00;;;;;;6211444;22;20217;-89
2023/01/08 11:28:51;;;;;;;10.02;6.88;;;8.60;1.00;;;;;;6087840;23;20190;-89
2023/01/08 11:34:41;;;;;;;9.75;7.03;;;8.50;1.00;;;;;;6223025;22;20204;-88
2023/01/08 11:40:32;;;;;;;9.83;6.80;;;8.60;1.00;;;;;;6233483;22;20417;-89
2023/01/08 11:49:50;;;;;;;9.50;6.70;;;8.60;1.00;;;;;;6209599;22;20381;-88
2023/01/08 11:52:51;;;;;;;9.38;6.50;;;8.50;1.00;;;;;;6252059;22;20396;-87
2023/01/08 12:04:19;;;;;;;11.20;7.30;;;8.40;1.00;;;;;;6200016;22;20212;-84
2023/01/08 12:10:18;;;;;;;11.30;7.43;;;8.50;1.00;;;;;;6170412;22;20425;-84
2023/01/08 12:16:18;;;;;;;11.67;7.80;;;8.60;1.00;;;;;;6210496;22;20216;-85
2023/01/08 12:19:19;;;;;;;11.18;7.25;;;8.60;1.00;;;;;;6180929;23;20541;-84
2023/01/08 12:22:10;;;;;;;11.27;8.02;;;8.70;1.00;;;;;;6190376;22;20259;-85
2023/01/08 12:25:22;;;;;;;;;;;;;;;;;;;;;
2023/01/08 12:28:10;;;;;;;11.70;7.53;;;8.60;1.00;;;;;;6176970;23;50055;-82
2023/01/08 12:31:11;;;;;;;11.60;7.90;;;8.60;1.00;;;;;;6180610;22;20214;-83
2023/01/08 12:34:00;;;;;;;10.30;7.65;;;8.60;1.00;;;;;;6192960;22;20252;-84
2023/01/08 12:36:41;;;;;;;12.17;7.70;;;8.70;1.00;;;;;;6192091;22;20801;-83
2023/01/08 12:39:26;;;;;;;11.10;7.20;;;8.90;1.00;;;;;;6222527;22;20946;-84
2023/01/08 12:51:38;;;;;;;11.23;7.10;;;9.20;1.00;;;;;;6200666;22;20415;-84
2023/01/08 12:54:38;;;;;;;12.17;7.20;;;9.30;1.00;;;;;;6204581;22;20479;-82
2023/01/08 12:57:26;;;;;;;10.73;6.70;;;9.30;1.00;;;;;;6230788;22;20407;-85
2023/01/08 13:00:49;;;;;;;;;;;;;;;;;;;;;
2023/01/08 13:09:30;;;;;;;11.55;7.30;;;9.20;1.00;;;;;;6106846;23;20423;-82
2023/01/08 13:12:01;;;;;;;12.00;7.50;;;9.20;1.00;;;;;;6102067;23;20219;-85
2023/01/08 13:14:41;;;;;;;11.23;6.30;;;9.20;1.00;;;;;;6117951;23;20437;-84
2023/01/08 13:17:32;;;;;;;;;;;;;;;;;;;;;
2023/01/08 13:23:01;;;;;;;9.87;6.97;;;9.10;1.00;;;;;;6198511;22;20401;-84
2023/01/08 13:25:51;;;;;;;8.93;5.80;;;9.10;1.00;;;;;;6209476;22;20426;-85
2023/01/08 13:28:51;;;;;;;9.40;5.80;;;9.00;1.00;;;;;;6196016;22;20438;-86
2023/01/08 13:32:02;;;;;;;;;;;;;;;;;;;;;
2023/01/08 13:34:49;;;;;;;11.60;7.23;;;8.90;1.00;;;;;;6215100;22;40454;-86
2023/01/08 13:41:06;;;;;;;10.13;7.17;;;8.80;1.00;;;;;;6223129;22;20433;-84
2023/01/08 13:43:43;;;;;;;11.97;7.80;;;8.80;1.00;;;;;;6056212;23;20463;-84
2023/01/08 13:46:50;;;;;;;10.07;6.77;;;8.70;1.00;;;;;;6062907;23;20436;-85
2023/01/08 13:49:29;;;;;;;11.02;8.15;;;8.60;1.00;;;;;;6067979;23;21112;-85
2023/01/08 13:52:41;;;;;;;15.95;9.60;;;8.60;1.00;;;;;;6192491;22;20570;-86
2023/01/08 13:55:28;;;;;;;11.07;7.37;;;8.60;1.00;;;;;;6147246;22;20266;-84
2023/01/08 14:01:01;;;;;;;11.53;7.67;;;8.50;1.00;;;;;;6220349;22;20430;-84
2023/01/08 14:03:37;;;;;;;13.20;8.30;;;8.50;1.00;;;;;;6217079;22;20914;-84
2023/01/08 14:06:42;;;;;;;10.93;8.38;;;8.50;1.00;;;;;;6226587;22;20419;-86
2023/01/08 14:10:00;;;;;;;10.67;7.77;;;8.50;1.00;;;;;;6208238;22;20247;-85
2023/01/08 14:13:01;;;;;;;;;;;;;;;;;;;;;
2023/01/08 14:19:24;;;;;;;12.40;8.65;;;8.50;1.00;;;;;;6026194;23;20440;-83
2023/01/08 14:21:54;;;;;;;12.68;8.18;;;8.40;1.00;;;;;;6201778;22;20286;-82
2023/01/08 14:24:24;;;;;;;12.80;8.82;;;8.30;1.00;;;;;;6232322;22;20225;-83
2023/01/08 14:26:54;;;;;;;11.68;8.18;;;8.30;1.00;;;;;;6226475;22;20216;-83
2023/01/08 14:29:26;;;;;;;12.65;8.45;;;8.20;1.00;;;;;;6226004;22;21357;-80
2023/01/08 14:31:55;;;;;;;12.85;8.25;;;8.30;1.00;;;;;;6222567;22;20294;-82
2023/01/08 14:34:26;;;;;;;13.37;8.97;;;8.30;1.00;;;;;;6232773;22;20223;-79
2023/01/08 14:36:55;;;;;;;12.65;8.77;;;8.30;1.00;;;;;;6225632;22;20420;-80
2023/01/08 14:39:23;;;;;;;13.82;9.80;;;8.30;1.00;;;;;;6217546;22;20199;-81
2023/01/08 14:44:39;;;;;;;13.83;9.50;;;8.20;1.00;;;;;;6225110;22;20215;-81
2023/01/08 14:47:17;;;;;;;13.50;9.40;;;8.20;1.00;;;;;;6204255;22;20429;-84
2023/01/08 14:49:58;;;;;;;12.77;9.35;;;8.20;1.00;;;;;;6216795;22;20421;-86
2023/01/08 14:52:25;;;;;;;15.00;10.33;;;8.20;1.00;;;;;;6210878;22;20212;-85
2023/01/08 14:54:56;;;;;;;14.43;9.60;;;8.20;1.00;;;;;;6246339;22;21148;-85
2023/01/08 14:57:23;;;;;;;13.05;9.00;;;8.10;1.00;;;;;;6256087;22;20290;-87
2023/01/08 14:59:57;;;;;;;13.20;8.95;;;8.10;1.00;;;;;;6256915;22;20236;-84
2023/01/08 15:02:29;;;;;;;14.57;9.97;;;8.10;1.00;;;;;;6243535;22;20303;-84
2023/01/08 15:05:19;;;;;;;15.73;10.43;;;8.10;1.00;;;;;;6253892;22;20427;-86
2023/01/08 15:08:01;;;;;;;15.03;9.63;;;8.00;1.00;;;;;;6211630;22;20215;-88
2023/01/08 15:11:52;;;;;;;;;;;;;;;;;;;;;
2023/01/08 15:23:47;;;;;;;14.45;10.15;;;7.80;1.00;;;;;;6103617;23;20214;-85
2023/01/08 15:30:02;;;;;;;;;;;;;;;;;;;;;
2023/01/08 15:45:02;;;;;;;15.15;11.35;;;7.80;1.00;;;;;;6090303;23;20296;-85
2023/01/08 15:47:32;;;;;;;17.33;11.15;;;7.80;1.00;;;;;;6076046;23;20279;-84
2023/01/08 15:50:02;;;;;;;16.30;11.37;;;7.80;1.00;;;;;;6083204;23;20225;-83
2023/01/08 15:52:33;;;;;;;14.10;11.02;;;7.80;1.00;;;;;;6108143;22;21063;-83
2023/01/08 15:55:01;;;;;;;18.00;12.00;;;7.80;1.00;;;;;;6243174;22;20219;-85
2023/01/08 15:57:30;;;;;;;15.50;10.30;;;7.80;1.00;;;;;;6285413;22;20445;-86
2023/01/08 16:00:22;;;;;;;16.20;11.82;;;7.80;1.00;;;;;;6285122;22;20210;-82
2023/01/08 16:02:52;;;;;;;16.48;11.02;;;7.80;1.00;;;;;;6285590;22;20271;-83
2023/01/08 16:05:25;;;;;;;15.77;11.60;;;7.80;1.00;;;;;;6282351;22;20214;-83
2023/01/08 16:07:52;;;;;;;16.77;12.30;;;7.90;1.00;;;;;;6281157;22;20466;-81
2023/01/08 16:10:22;;;;;;;15.18;11.25;;;7.90;1.00;;;;;;6283241;22;20423;-81
2023/01/08 16:12:51;;;;;;;16.15;11.15;;;7.90;1.00;;;;;;6285424;22;20221;-82
2023/01/08 16:15:20;;;;;;;14.88;10.95;;;7.90;1.00;;;;;;6285612;22;20271;-82
2023/01/08 16:17:50;;;;;;;13.30;10.57;;;7.90;1.00;;;;;;6287041;22;20323;-84
2023/01/08 16:20:17;;;;;;;14.95;10.65;;;7.90;1.00;;;;;;6286453;22;20425;-81
2023/01/08 16:22:50;;;;;;;15.93;12.07;;;7.80;1.00;;;;;;6283907;22;20214;-81
2023/01/08 16:25:17;;;;;;;15.13;10.87;;;7.80;1.00;;;;;;6290129;22;20207;-82
2023/01/08 16:27:45;;;;;;;15.27;11.10;;;7.80;1.00;;;;;;6281788;22;20951;-84
2023/01/08 16:30:14;;;;;;;15.65;11.10;;;7.90;1.00;;;;;;6282117;22;20290;-82
2023/01/08 16:32:41;;;;;;;14.90;10.93;;;7.80;1.00;;;;;;6281499;22;20223;-83
2023/01/08 16:35:11;;;;;;;14.75;11.20;;;7.90;1.00;;;;;;6283847;22;20953;-82
2023/01/08 16:37:40;;;;;;;13.95;9.82;;;7.90;1.00;;;;;;6282110;22;20257;-82
2023/01/08 16:40:08;;;;;;;16.88;11.13;;;7.90;1.00;;;;;;6287268;22;21098;-84
2023/01/08 16:42:43;;;;;;;14.93;10.35;;;7.90;1.00;;;;;;6283181;22;20340;-82
2023/01/08 16:45:12;;;;;;;13.68;10.10;;;7.90;1.00;;;;;;6281552;22;20211;-83
2023/01/08 16:47:39;;;;;;;14.40;10.32;;;7.90;1.00;;;;;;6287895;22;20220;-81
2023/01/08 16:50:10;;;;;;;15.13;9.73;;;7.80;1.00;;;;;;6286428;22;20212;-83
2023/01/08 16:52:40;;;;;;;14.75;10.18;;;7.80;1.00;;;;;;6292600;22;20389;-83
2023/01/08 16:55:19;;;;;;;13.00;9.40;;;7.80;1.00;;;;;;6283721;22;20237;-82
2023/01/08 16:57:51;;;;;;;13.45;10.55;;;7.80;1.00;;;;;;6285160;22;20401;-81
2023/01/08 17:03:21;;;;;;;13.25;10.00;;;7.80;1.00;;;;;;6261651;22;20217;-86
2023/01/08 17:05:51;;;;;;;15.38;10.70;;;7.80;1.00;;;;;;6284519;22;20233;-86
2023/01/08 17:08:19;;;;;;;15.55;11.32;;;7.80;1.00;;;;;;6268487;22;20235;-87
2023/01/08 17:10:52;;;;;;;13.98;10.00;;;7.80;1.00;;;;;;6269827;22;20218;-84
2023/01/08 17:13:22;;;;;;;13.18;9.77;;;7.80;1.00;;;;;;6269551;22;20275;-84
2023/01/08 17:15:51;;;;;;;14.90;10.52;;;7.80;1.00;;;;;;6287050;22;20205;-84
2023/01/08 17:18:21;;;;;;;17.05;10.88;;;7.90;1.00;;;;;;6269366;22;20202;-84
2023/01/08 17:21:01;;;;;;;13.87;9.73;;;7.80;1.00;;;;;;6287137;22;20215;-86
2023/01/08 17:23:41;;;;;;;14.18;10.32;;;7.80;1.00;;;;;;6281245;22;20454;-84
2023/01/08 17:26:23;;;;;;;12.35;9.32;;;7.80;1.00;;;;;;6283007;22;20241;-85
2023/01/08 17:29:02;;;;;;;13.95;10.40;;;7.70;1.00;;;;;;6287757;22;20193;-87
2023/01/08 17:35:03;;;;;;;11.75;8.90;;;7.60;1.00;;;;;;6254486;22;20210;-85
2023/01/08 17:37:52;;;;;;;;;;;;;;;;;;;;;
2023/01/08 17:43:39;;;;;;;13.98;9.25;;;7.50;1.00;;;;;;6243786;22;20224;-85
2023/01/08 17:46:11;;;;;;;15.18;9.80;;;7.40;1.00;;;;;;6270796;22;20223;-86
2023/01/08 17:48:46;;;;;;;13.05;9.57;;;7.40;1.00;;;;;;6253032;22;20694;-84
2023/01/08 17:51:15;;;;;;;12.82;9.30;;;7.40;1.00;;;;;;6282848;22;20222;-85